Lamont, FL (32336)

5:00 AM EDT on September 05, 2015 (GMT -0400)
Jefferson County Middle/High School WeatherSTEM | | Change Station
CLOSE
Current Station
Personal Weather Station
Location: Monticello, FL
Elevation: 167 ft
Nearby Weather Stations

Elev 167 ft 30.49 °N, 83.88 °W | Updated 5 minutes ago

Partly Cloudy
Partly Cloudy
72.2 °F
Feels Like 72.2 °F
N
0.0
Wind Variable Wind from South
Gusts 1.0 mph

Today
High -- | Low -- °F
--% Chance of Precip.
Yesterday
High -- | Low -- °F
Precip. -- in
7:14 AM 7:53 PM
Waning Gibbous, 50% visible
Pressure 29.96 in
Visibility 9.0 miles
Clouds Few 6000 ft
Few 20000 ft
Dew Point 71 °F
Humidity 95%
Rainfall 0.00 in
Snow Depth Not available.
UV 0.0 out of 12
Pollen 7.20 out of 12
Air Quality Not available.
Flu Activity Not available.
METAR KTLH 050853Z 22004KT 9SM BCFG FEW060 FEW200 23/22 A2997 RMK AO2 SLP146 T02330222 53001 $
Pressure 29.96 in
Visibility 9.0 miles
Clouds Few 6000 ft
Few 20000 ft
Dew Point 71 °F
Humidity 95%
Rainfall 0.00 in
Snow Depth Not available.
UV 0.0 out of 12
Pollen 7.20 out of 12
Air Quality Not available.
Flu Activity Not available.
METAR KTLH 050853Z 22004KT 9SM BCFG FEW060 FEW200 23/22 A2997 RMK AO2 SLP146 T02330222 53001 $

10-Day Weather Forecast

×

Almanac

Astronomy

Sep. 05, 2015 Rise Set
Actual Time
Civil Twilight
Nautical Twilight
Astronomical Twilight
Moon
Length of Visible Light
Length of Day
Tomorrow will be .
, % of the Moon is Illuminated

Today's Extremes

State Highs State Lows

Community

WunderPhotos

Upload Photos

1,852,440 photos uploaded!

WunderBlogs® & News

Nearby

Air Quality

  Air Quality AQ Index Pollutant
Not available.

Snow Depth

Station Depth Elevation

Earthquake Activity

City Distance Mag. Time & Date
Minimum magnitude displayed is 2.5.

Coastal Water Temperatures

Place Temperature

Stations

Nearby Weather Stations

Station Location Temp. Windchill Dew Point Humidity Wind Precip. Elev Updated Type